Time;durP1;ratioP1;P1;durP2;ratioP2;P2;SDS_P1;SDS_P2;PMS_P1;PMS_P2;Temp;Humidity;BMP_temperature;BMP_pressure;BME280_temperature;BME280_humidity;BME280_pressure;Samples;Min_cycle;Max_cycle;Signal;HPM_P1;HPM_P2
2022/01/06 00:01:04;;;;;;;4.63;0.77;;;3.70;1.00;;;;;;5031969;28;21253;-78
2022/01/06 00:03:31;;;;;;;12.80;2.22;;;3.80;1.00;;;;;;5032063;28;20069;-78
2022/01/06 00:06:00;;;;;;;9.43;2.10;;;3.90;3.60;;;;;;5030750;28;20066;-82
2022/01/06 00:08:26;;;;;;;6.00;0.75;;;3.80;9.80;;;;;;5031953;28;20507;-78
2022/01/06 00:10:52;;;;;;;14.48;1.90;;;3.70;26.40;;;;;;5032053;28;20034;-78
2022/01/06 00:13:25;;;;;;;10.05;1.08;;;3.80;32.00;;;;;;5015249;28;20104;-78
2022/01/06 00:23:38;;;;;;;13.93;1.48;;;4.00;30.60;;;;;;5031300;28;20087;-82
2022/01/06 00:26:04;;;;;;;16.85;2.03;;;4.30;23.80;;;;;;5031551;28;20041;-81
2022/01/06 00:28:30;;;;;;;11.82;2.58;;;4.40;17.60;;;;;;5014789;28;20186;-77
2022/01/06 00:30:56;;;;;;;12.57;3.10;;;4.40;16.10;;;;;;5048229;28;20142;-81
2022/01/06 00:33:22;;;;;;;18.85;2.70;;;4.40;12.30;;;;;;5030912;28;20172;-81
2022/01/06 00:35:48;;;;;;;19.83;2.40;;;4.40;15.90;;;;;;5015009;28;20037;-78
2022/01/06 00:38:14;;;;;;;18.35;2.90;;;4.30;26.90;;;;;;5030908;28;20365;-81
2022/01/06 00:40:40;;;;;;;19.58;2.95;;;4.20;42.30;;;;;;5031036;28;20408;-77
2022/01/06 00:43:07;;;;;;;19.77;2.88;;;4.20;47.40;;;;;;5031189;28;20033;-78
2022/01/06 00:45:36;;;;;;;18.38;2.63;;;4.20;43.70;;;;;;5031798;28;20045;-81
2022/01/06 00:48:02;;;;;;;12.35;2.58;;;4.20;39.70;;;;;;4998515;28;20041;-81
2022/01/06 00:50:28;;;;;;;15.02;2.00;;;4.00;37.60;;;;;;5031185;28;20046;-77
2022/01/06 00:52:54;;;;;;;14.80;3.47;;;3.90;19.40;;;;;;5031282;28;20481;-78
2022/01/06 00:55:20;;;;;;;8.23;1.50;;;3.80;2.30;;;;;;5030859;28;20044;-82
2022/01/06 00:57:46;;;;;;;10.90;1.27;;;3.80;1.00;;;;;;5014693;28;20077;-82
2022/01/06 01:00:12;;;;;;;9.48;1.58;;;3.60;1.00;;;;;;5031160;28;20083;-77
2022/01/06 01:02:38;;;;;;;8.10;1.02;;;3.60;1.00;;;;;;5030799;28;20092;-81
2022/01/06 01:05:04;;;;;;;11.23;1.98;;;3.40;8.20;;;;;;5014774;28;20484;-77
2022/01/06 01:07:30;;;;;;;15.85;1.80;;;3.40;20.70;;;;;;5030389;28;20512;-77
2022/01/06 01:09:56;;;;;;;17.13;1.70;;;3.30;37.30;;;;;;5030640;28;20049;-81
2022/01/06 01:12:24;;;;;;;15.20;2.00;;;3.20;51.60;;;;;;5013932;28;20053;-81
2022/01/06 01:14:57;;;;;;;20.23;2.67;;;3.00;69.80;;;;;;5031020;28;20076;-77
2022/01/06 01:17:26;;;;;;;15.83;2.03;;;2.90;87.70;;;;;;5030387;28;20452;-78
2022/01/06 01:19:52;;;;;;;17.70;3.57;;;2.80;97.10;;;;;;5030806;28;20338;-77
2022/01/06 01:22:18;;;;;;;11.47;1.90;;;2.70;99.90;;;;;;5030588;28;20136;-81
2022/01/06 01:24:43;;;;;;;17.80;1.87;;;2.60;99.90;;;;;;4997853;28;20046;-80
2022/01/06 01:27:09;;;;;;;19.40;2.77;;;2.50;99.90;;;;;;5047144;28;20046;-81
2022/01/06 01:29:44;;;;;;;18.27;2.57;;;2.50;99.90;;;;;;5030647;28;20124;-77
2022/01/06 01:32:10;;;;;;;17.07;2.90;;;2.40;99.90;;;;;;5030462;28;20042;-81
2022/01/06 01:34:38;;;;;;;18.83;2.97;;;2.30;99.90;;;;;;5029958;28;20125;-77
2022/01/06 01:37:04;;;;;;;21.53;3.87;;;2.30;99.90;;;;;;4997967;28;20045;-80
2022/01/06 01:39:30;;;;;;;19.97;1.97;;;2.20;99.90;;;;;;5030241;28;20352;-81
2022/01/06 01:41:56;;;;;;;16.63;2.03;;;2.20;99.90;;;;;;5045348;28;20500;-78
2022/01/06 01:44:22;;;;;;;29.93;3.67;;;2.30;99.90;;;;;;5014023;28;20044;-77
2022/01/06 01:47:14;;;;;;;28.53;2.80;;;2.50;99.90;;;;;;5030905;28;20510;-81
2022/01/06 01:50:10;;;;;;;21.33;4.00;;;2.50;99.90;;;;;;5030015;28;20045;-77
2022/01/06 01:52:26;;;;;;;19.13;2.80;;;2.50;99.90;;;;;;5015599;28;20496;-81
2022/01/06 01:54:52;;;;;;;17.23;3.33;;;2.40;99.90;;;;;;5013974;28;20045;-81
2022/01/06 01:57:18;;;;;;;23.97;4.27;;;2.50;99.90;;;;;;5029928;28;20473;-77
2022/01/06 01:59:45;;;;;;;20.40;3.50;;;2.50;99.90;;;;;;5029706;28;20048;-81
2022/01/06 02:02:10;;;;;;;24.10;2.27;;;2.50;99.90;;;;;;5046369;28;20072;-80
2022/01/06 02:04:36;;;;;;;25.57;2.37;;;2.60;99.90;;;;;;5013702;28;20045;-81
2022/01/06 02:07:03;;;;;;;12.40;1.80;;;2.60;99.90;;;;;;5046156;28;20117;-81
2022/01/06 02:09:29;;;;;;;9.87;1.63;;;2.80;99.90;;;;;;5013518;28;20046;-77
2022/01/06 02:11:55;;;;;;;21.10;2.37;;;2.90;99.90;;;;;;5012867;28;20084;-77
2022/01/06 02:14:20;;;;;;;17.48;1.40;;;3.00;99.90;;;;;;5013574;28;20205;-77
2022/01/06 02:16:46;;;;;;;11.37;1.23;;;3.00;99.90;;;;;;5013561;28;20295;-81
2022/01/06 02:19:12;;;;;;;11.90;1.63;;;3.10;99.90;;;;;;5013330;28;20048;-81
2022/01/06 02:21:41;;;;;;;16.73;2.30;;;3.10;99.80;;;;;;5046746;28;20045;-81
2022/01/06 02:24:07;;;;;;;21.90;2.10;;;3.10;91.70;;;;;;5029829;28;20503;-77
2022/01/06 02:26:32;;;;;;;14.63;1.57;;;3.00;91.90;;;;;;5029682;28;20152;-81
2022/01/06 02:28:58;;;;;;;20.63;2.47;;;2.90;93.90;;;;;;5014475;28;20037;-77
2022/01/06 02:31:24;;;;;;;12.63;1.90;;;2.70;98.80;;;;;;5034569;28;20044;-77
2022/01/06 02:33:50;;;;;;;20.20;2.00;;;2.50;99.90;;;;;;5000893;28;20381;-80
2022/01/06 02:36:16;;;;;;;15.43;2.20;;;2.40;99.90;;;;;;5049783;28;20400;-77
2022/01/06 02:38:41;;;;;;;32.57;4.67;;;2.30;99.90;;;;;;5017156;28;20033;-81
2022/01/06 02:41:07;;;;;;;20.40;3.70;;;2.20;99.90;;;;;;5033698;28;20041;-77
2022/01/06 02:43:34;;;;;;;15.53;2.30;;;2.00;99.90;;;;;;5033288;28;20091;-81
2022/01/06 02:46:00;;;;;;;9.40;1.67;;;1.90;99.90;;;;;;5033681;28;20537;-80
2022/01/06 02:48:26;;;;;;;21.43;2.07;;;1.80;99.90;;;;;;5033591;28;20076;-81
2022/01/06 02:50:52;;;;;;;25.87;4.20;;;1.70;99.90;;;;;;4999444;28;20103;-81
2022/01/06 02:53:19;;;;;;;33.60;4.77;;;1.70;99.90;;;;;;5033714;28;20053;-77
2022/01/06 02:55:50;;;;;;;18.27;3.23;;;1.70;99.90;;;;;;5049273;28;20060;-77
2022/01/06 02:58:17;;;;;;;17.37;2.83;;;1.70;99.90;;;;;;5033108;28;20037;-79
2022/01/06 03:00:44;;;;;;;19.27;2.83;;;1.70;99.90;;;;;;5033104;28;20042;-80
2022/01/06 03:03:10;;;;;;;44.27;3.73;;;1.70;99.90;;;;;;5016695;28;20052;-79
2022/01/06 03:05:35;;;;;;;16.00;2.03;;;1.60;99.90;;;;;;5016232;28;20049;-80
2022/01/06 03:08:01;;;;;;;22.07;2.47;;;1.60;99.90;;;;;;5032829;28;20384;-81
2022/01/06 03:10:27;;;;;;;17.27;1.63;;;1.50;99.90;;;;;;5050061;28;20120;-80
2022/01/06 03:12:53;;;;;;;15.43;2.97;;;1.50;99.90;;;;;;5049404;28;20037;-81
2022/01/06 03:15:22;;;;;;;15.10;2.20;;;1.50;99.90;;;;;;4999841;28;20060;-77
2022/01/06 03:17:51;;;;;;;14.50;2.13;;;1.40;99.90;;;;;;5033017;28;20037;-80
2022/01/06 03:20:19;;;;;;;24.90;4.13;;;1.30;99.90;;;;;;5032211;28;20072;-81
2022/01/06 03:22:45;;;;;;;21.03;2.93;;;1.30;99.90;;;;;;5032920;28;20041;-77
2022/01/06 03:25:13;;;;;;;14.53;2.07;;;1.20;99.90;;;;;;5032314;28;20034;-80
2022/01/06 03:27:40;;;;;;;15.27;2.03;;;1.20;99.90;;;;;;5032506;28;20503;-77
2022/01/06 03:30:09;;;;;;;22.07;2.53;;;1.20;99.90;;;;;;5015853;28;20511;-81
2022/01/06 03:32:35;;;;;;;19.20;2.43;;;1.20;99.90;;;;;;5032717;28;20041;-81
2022/01/06 03:35:01;;;;;;;16.73;3.20;;;1.20;99.90;;;;;;5016274;28;20045;-81
2022/01/06 03:37:27;;;;;;;14.73;2.40;;;1.10;99.90;;;;;;5032561;28;20076;-77
2022/01/06 03:39:53;;;;;;;12.50;2.27;;;1.00;99.90;;;;;;5032117;28;20512;-77
2022/01/06 03:42:19;;;;;;;13.07;2.23;;;0.90;99.90;;;;;;5015819;28;20096;-77
2022/01/06 03:44:45;;;;;;;13.63;1.90;;;0.80;99.90;;;;;;5015995;28;20046;-80
2022/01/06 03:47:11;;;;;;;14.57;2.50;;;0.70;99.90;;;;;;5015754;28;20041;-77
2022/01/06 03:49:37;;;;;;;21.80;2.97;;;0.50;99.90;;;;;;5032054;28;20045;-81
2022/01/06 03:52:03;;;;;;;32.50;3.70;;;0.40;99.90;;;;;;5048481;28;20125;-81
2022/01/06 03:54:29;;;;;;;21.03;2.37;;;0.30;99.90;;;;;;5032461;28;20045;-81
2022/01/06 03:56:55;;;;;;;20.37;2.50;;;0.30;99.90;;;;;;5031835;28;20037;-77
2022/01/06 03:59:20;;;;;;;17.90;2.50;;;0.30;99.90;;;;;;4999234;28;20633;-82
2022/01/06 04:01:46;;;;;;;20.33;2.87;;;0.30;99.90;;;;;;5032307;28;20037;-77
2022/01/06 04:04:13;;;;;;;26.80;4.57;;;0.60;99.90;;;;;;5031904;28;20099;-81
2022/01/06 04:06:42;;;;;;;25.93;4.20;;;0.70;99.90;;;;;;5015253;28;20053;-77
2022/01/06 04:09:09;;;;;;;16.87;2.73;;;0.90;99.90;;;;;;4999151;28;20114;-81
2022/01/06 04:11:35;;;;;;;29.17;3.70;;;1.20;99.90;;;;;;5048272;28;20048;-81
2022/01/06 04:14:01;;;;;;;20.60;2.53;;;1.10;99.90;;;;;;4998866;28;20431;-77
2022/01/06 04:16:28;;;;;;;16.73;2.50;;;0.80;99.90;;;;;;5048536;28;20048;-81
2022/01/06 04:18:53;;;;;;;13.70;2.00;;;0.50;99.90;;;;;;5047991;28;20048;-81
2022/01/06 04:21:19;;;;;;;23.10;2.80;;;0.30;99.90;;;;;;5032060;28;20041;-77
2022/01/06 04:23:48;;;;;;;21.40;2.17;;;0.10;99.90;;;;;;5031720;28;20042;-77
2022/01/06 04:26:15;;;;;;;23.47;4.17;;;-0.10;99.90;;;;;;5015471;28;20042;-81
2022/01/06 04:28:41;;;;;;;16.57;2.03;;;-0.20;99.90;;;;;;5014919;28;20049;-81
2022/01/06 04:31:07;;;;;;;16.37;2.30;;;-0.30;99.90;;;;;;5048647;28;20120;-77
2022/01/06 04:33:33;;;;;;;16.63;2.30;;;-0.50;99.90;;;;;;5031276;28;20168;-81
2022/01/06 04:35:59;;;;;;;11.30;3.13;;;-0.50;99.90;;;;;;5048177;28;20100;-81
2022/01/06 04:38:27;;;;;;;17.63;1.90;;;-0.50;99.90;;;;;;5031379;28;20092;-77
2022/01/06 04:40:53;;;;;;;16.47;2.27;;;-0.60;99.90;;;;;;5029093;28;20080;-77
2022/01/06 04:43:19;;;;;;;19.37;2.47;;;-0.80;99.90;;;;;;5031361;28;20041;-81
2022/01/06 04:45:45;;;;;;;16.20;2.80;;;-0.90;99.90;;;;;;5030831;28;20045;-77
2022/01/06 04:48:11;;;;;;;17.10;2.37;;;-1.00;99.90;;;;;;5031321;28;20052;-81
2022/01/06 04:50:37;;;;;;;15.53;2.17;;;-1.00;99.90;;;;;;5047306;28;20037;-81
2022/01/06 04:53:03;;;;;;;17.27;1.80;;;-1.00;99.90;;;;;;5014059;28;20530;-81
2022/01/06 04:55:29;;;;;;;13.37;2.07;;;-1.00;99.90;;;;;;5047427;28;20496;-77
2022/01/06 04:57:54;;;;;;;18.40;2.07;;;-1.10;99.90;;;;;;5014351;28;20038;-78
2022/01/06 05:00:20;;;;;;;19.93;1.77;;;-1.10;99.90;;;;;;5047588;28;20277;-77
2022/01/06 05:02:46;;;;;;;29.97;2.80;;;-1.00;99.90;;;;;;5014430;28;20092;-80
2022/01/06 05:05:14;;;;;;;21.80;3.30;;;-1.20;99.90;;;;;;4997916;28;20059;-77
2022/01/06 05:07:42;;;;;;;25.53;3.40;;;-1.20;99.90;;;;;;5027522;28;20057;-80
2022/01/06 05:10:09;;;;;;;25.17;2.63;;;-1.30;99.90;;;;;;5031557;28;20046;-77
2022/01/06 05:12:41;;;;;;;19.40;2.47;;;-1.30;99.90;;;;;;5030999;28;20041;-81
2022/01/06 05:15:08;;;;;;;30.20;4.97;;;-1.30;99.90;;;;;;4998519;28;20083;-77
2022/01/06 05:17:34;;;;;;;14.50;2.33;;;-1.30;99.90;;;;;;5030999;28;20041;-77
2022/01/06 05:20:00;;;;;;;18.63;2.27;;;-1.20;99.90;;;;;;5030767;28;20118;-77
2022/01/06 05:22:27;;;;;;;21.13;2.63;;;-1.20;99.90;;;;;;5030610;28;20042;-81
2022/01/06 05:24:53;;;;;;;22.43;1.93;;;-1.30;99.90;;;;;;5030492;28;20057;-81
2022/01/06 05:27:19;;;;;;;21.03;2.10;;;-1.30;99.90;;;;;;5030228;28;20061;-81
2022/01/06 05:29:45;;;;;;;23.17;2.40;;;-1.20;99.90;;;;;;5030170;28;20102;-81
2022/01/06 05:32:11;;;;;;;20.67;2.30;;;-1.20;99.90;;;;;;5014223;28;20114;-81
2022/01/06 05:34:37;;;;;;;23.57;3.57;;;-1.10;99.90;;;;;;5030621;28;20570;-77
2022/01/06 05:37:03;;;;;;;18.90;2.43;;;-1.10;99.90;;;;;;5030803;28;20080;-78
2022/01/06 05:39:29;;;;;;;18.27;1.87;;;-1.20;99.90;;;;;;5030006;28;20038;-77
2022/01/06 05:41:55;;;;;;;20.83;2.63;;;-1.20;99.90;;;;;;5046859;28;20046;-81
2022/01/06 05:44:20;;;;;;;16.57;3.10;;;-1.20;99.90;;;;;;5012665;28;20130;-77
2022/01/06 05:46:47;;;;;;;13.73;1.90;;;-1.30;99.90;;;;;;5030468;28;20084;-78
2022/01/06 05:49:14;;;;;;;18.37;2.63;;;-1.40;99.90;;;;;;5030035;28;20034;-78
2022/01/06 05:51:40;;;;;;;19.57;3.40;;;-1.40;99.90;;;;;;5013828;28;20053;-81
2022/01/06 05:54:06;;;;;;;20.43;1.70;;;-1.50;99.90;;;;;;5029895;28;20041;-81
2022/01/06 05:56:32;;;;;;;25.27;2.30;;;-1.50;99.90;;;;;;5046801;28;20059;-78
2022/01/06 05:58:58;;;;;;;20.13;2.40;;;-1.50;99.90;;;;;;5045993;28;20056;-81
2022/01/06 06:01:23;;;;;;;17.03;2.40;;;-1.50;99.90;;;;;;5030205;28;20048;-78
2022/01/06 06:03:49;;;;;;;23.27;2.27;;;-1.60;99.90;;;;;;5029794;28;20042;-82
2022/01/06 06:06:16;;;;;;;18.37;2.20;;;-1.50;99.90;;;;;;5013378;28;20061;-81
2022/01/06 06:08:41;;;;;;;25.87;2.43;;;-1.50;99.90;;;;;;5046167;28;20049;-78
2022/01/06 06:11:07;;;;;;;22.43;3.57;;;-1.40;99.90;;;;;;5013701;28;20514;-78
2022/01/06 06:13:33;;;;;;;20.93;2.27;;;-1.40;99.90;;;;;;5029910;28;20041;-81
2022/01/06 06:15:59;;;;;;;31.63;2.40;;;-1.30;99.90;;;;;;5029907;28;20042;-78
2022/01/06 06:18:24;;;;;;;26.97;2.90;;;-1.30;99.90;;;;;;5013082;28;20100;-78
2022/01/06 06:20:50;;;;;;;15.70;2.17;;;-1.30;99.90;;;;;;5029681;28;20041;-81
2022/01/06 06:23:16;;;;;;;22.80;3.33;;;-1.40;99.90;;;;;;5013575;28;20045;-78
2022/01/06 06:25:42;;;;;;;22.57;2.70;;;-1.40;99.90;;;;;;4997099;28;20033;-81
2022/01/06 06:28:08;;;;;;;20.93;2.73;;;-1.50;99.90;;;;;;5013140;28;20090;-78
2022/01/06 06:30:33;;;;;;;26.53;2.33;;;-1.50;99.90;;;;;;5013554;28;20038;-78
2022/01/06 06:33:01;;;;;;;25.90;2.37;;;-1.60;99.90;;;;;;5029813;28;20053;-78
2022/01/06 06:35:27;;;;;;;19.43;2.33;;;-1.50;99.90;;;;;;5029971;28;20049;-78
2022/01/06 06:37:53;;;;;;;25.67;3.73;;;-1.50;99.90;;;;;;5013134;28;20120;-77
2022/01/06 06:40:22;;;;;;;24.33;4.77;;;-1.50;99.90;;;;;;5013215;28;20124;-81
2022/01/06 06:42:48;;;;;;;24.13;3.40;;;-1.60;99.90;;;;;;5012881;28;20045;-78
2022/01/06 06:45:15;;;;;;;25.53;2.70;;;-1.50;99.90;;;;;;5029155;28;20092;-78
2022/01/06 06:47:41;;;;;;;21.60;3.17;;;-1.50;99.90;;;;;;5012850;28;20073;-81
2022/01/06 06:50:08;;;;;;;31.53;4.73;;;-1.50;99.90;;;;;;5029393;28;20147;-78
2022/01/06 06:52:34;;;;;;;22.57;3.67;;;-1.50;99.90;;;;;;5028383;28;20065;-78
2022/01/06 06:55:00;;;;;;;14.17;2.00;;;-1.30;99.90;;;;;;5029228;28;20146;-81
2022/01/06 06:57:25;;;;;;;24.97;3.17;;;-1.20;99.90;;;;;;5012728;28;20037;-78
2022/01/06 06:59:51;;;;;;;26.20;4.33;;;-1.20;99.90;;;;;;5029919;28;20485;-78
2022/01/06 07:02:17;;;;;;;24.47;3.50;;;-1.20;99.90;;;;;;5029084;28;20056;-78
2022/01/06 07:04:42;;;;;;;18.40;2.47;;;-1.30;99.90;;;;;;5029446;28;20107;-81
2022/01/06 07:07:08;;;;;;;27.13;3.93;;;-1.30;99.90;;;;;;5012666;28;20473;-81
2022/01/06 07:09:34;;;;;;;18.53;2.40;;;-1.30;99.90;;;;;;5029728;28;20054;-78
2022/01/06 07:11:59;;;;;;;24.67;2.57;;;-1.40;99.90;;;;;;5013046;28;20148;-78
2022/01/06 07:14:25;;;;;;;28.37;2.40;;;-1.40;99.90;;;;;;5029069;28;20124;-81
2022/01/06 07:16:51;;;;;;;35.70;4.80;;;-1.40;99.90;;;;;;5032782;28;20446;-77
2022/01/06 07:19:16;;;;;;;22.17;3.03;;;-1.40;99.90;;;;;;5033080;28;20144;-81
2022/01/06 07:21:42;;;;;;;18.23;2.53;;;-1.40;99.90;;;;;;4999701;28;20076;-81
2022/01/06 07:24:08;;;;;;;18.10;2.53;;;-1.30;99.90;;;;;;4999905;28;20124;-82
2022/01/06 07:26:33;;;;;;;24.20;3.70;;;-1.30;99.90;;;;;;5032701;28;20488;-77
2022/01/06 07:28:59;;;;;;;17.43;2.33;;;-1.30;99.90;;;;;;5048793;28;20080;-81
2022/01/06 07:31:25;;;;;;;27.67;2.83;;;-1.30;99.90;;;;;;5048968;28;20042;-81
2022/01/06 07:33:51;;;;;;;36.43;4.40;;;-1.30;99.90;;;;;;5032607;28;20049;-81
2022/01/06 07:36:17;;;;;;;23.50;3.03;;;-1.30;99.90;;;;;;5016060;28;20049;-77
2022/01/06 07:38:42;;;;;;;24.27;3.60;;;-1.20;99.90;;;;;;4999691;28;20175;-81
2022/01/06 07:41:08;;;;;;;33.67;4.57;;;-1.10;99.90;;;;;;5015978;28;20186;-78
2022/01/06 07:43:34;;;;;;;21.03;2.70;;;-1.10;99.90;;;;;;5029787;28;20037;-81
2022/01/06 07:46:00;;;;;;;26.80;4.90;;;-1.10;99.90;;;;;;5032117;28;20045;-81
2022/01/06 07:48:30;;;;;;;22.83;4.70;;;-1.10;99.90;;;;;;5032919;28;20049;-81
2022/01/06 07:50:56;;;;;;;24.13;3.17;;;-1.10;99.90;;;;;;5032848;28;20552;-77
2022/01/06 07:53:21;;;;;;;20.37;2.60;;;-0.80;99.90;;;;;;5048840;28;20120;-81
2022/01/06 07:55:47;;;;;;;24.40;3.00;;;-0.70;99.90;;;;;;5015388;28;20065;-81
2022/01/06 07:58:13;;;;;;;22.87;3.67;;;-0.60;99.90;;;;;;5032196;28;20033;-77
2022/01/06 08:00:39;;;;;;;28.23;3.10;;;-0.50;99.90;;;;;;5031902;28;20042;-78
2022/01/06 08:03:04;;;;;;;24.87;3.90;;;-0.20;99.90;;;;;;5032659;28;20049;-78
2022/01/06 08:05:30;;;;;;;31.27;3.50;;;-0.20;99.90;;;;;;5015544;28;20041;-81
2022/01/06 08:07:56;;;;;;;18.80;2.37;;;-0.20;99.90;;;;;;5032138;28;20053;-82
2022/01/06 08:10:22;;;;;;;28.47;3.80;;;-0.10;99.90;;;;;;5031780;28;20405;-81
2022/01/06 08:12:48;;;;;;;31.47;4.20;;;-0.10;99.90;;;;;;5013082;28;20132;-81
2022/01/06 08:15:14;;;;;;;28.90;5.53;;;-0.10;99.90;;;;;;5015188;28;20047;-81
2022/01/06 08:17:40;;;;;;;21.00;3.80;;;-0.10;99.90;;;;;;4998948;28;20041;-77
2022/01/06 08:20:08;;;;;;;22.10;3.83;;;0.20;99.90;;;;;;5015027;28;20440;-81
2022/01/06 08:22:38;;;;;;;33.93;4.97;;;-0.10;99.90;;;;;;5015341;28;20120;-81
2022/01/06 08:25:06;;;;;;;17.27;2.50;;;0.00;99.90;;;;;;5015322;28;20042;-77
2022/01/06 08:27:31;;;;;;;31.23;5.10;;;-0.10;99.90;;;;;;4997498;28;20045;-77
2022/01/06 08:29:57;;;;;;;20.20;3.07;;;-0.20;99.90;;;;;;5014891;28;20046;-77
2022/01/06 08:32:23;;;;;;;27.00;3.90;;;-0.30;99.90;;;;;;5014598;28;20049;-77
2022/01/06 08:34:49;;;;;;;23.80;3.10;;;-0.30;99.90;;;;;;5047921;28;20176;-81
2022/01/06 08:37:15;;;;;;;25.57;3.00;;;-0.30;99.90;;;;;;5028631;28;20038;-78
2022/01/06 08:39:41;;;;;;;21.40;3.27;;;-0.30;99.90;;;;;;5031566;28;20436;-77
2022/01/06 08:42:07;;;;;;;18.77;2.10;;;-0.30;99.90;;;;;;5015493;28;20045;-81
2022/01/06 08:44:33;;;;;;;20.70;3.63;;;-0.20;99.90;;;;;;5048161;28;20041;-78
2022/01/06 08:47:01;;;;;;;18.23;3.23;;;-0.10;99.90;;;;;;5014784;28;20207;-78
2022/01/06 08:49:27;;;;;;;25.17;2.50;;;-0.10;99.90;;;;;;5014935;28;20526;-78
2022/01/06 08:51:53;;;;;;;26.03;4.13;;;-0.10;99.90;;;;;;5030855;28;20333;-78
2022/01/06 08:54:19;;;;;;;34.97;4.17;;;-0.10;99.90;;;;;;5030815;28;20042;-77
2022/01/06 08:56:45;;;;;;;23.77;3.30;;;-0.10;99.90;;;;;;5014564;28;20060;-78
2022/01/06 08:59:11;;;;;;;31.77;3.30;;;0.00;99.90;;;;;;5047064;28;20037;-78
2022/01/06 09:01:36;;;;;;;26.40;3.70;;;0.20;99.90;;;;;;5014174;28;20041;-82
2022/01/06 09:04:03;;;;;;;22.07;2.70;;;0.30;99.90;;;;;;5030620;28;20042;-81
2022/01/06 09:06:29;;;;;;;24.00;3.10;;;0.40;99.90;;;;;;5014519;28;20069;-82
2022/01/06 09:08:55;;;;;;;14.27;3.23;;;0.50;99.90;;;;;;5030740;28;20447;-80
2022/01/06 09:11:21;;;;;;;18.67;3.33;;;0.50;99.90;;;;;;5031021;28;20041;-78
2022/01/06 09:13:46;;;;;;;22.00;3.07;;;0.50;99.90;;;;;;5047187;28;20524;-81
2022/01/06 09:16:13;;;;;;;20.20;2.60;;;0.60;99.90;;;;;;5014275;28;20049;-82
2022/01/06 09:18:40;;;;;;;20.50;3.30;;;0.80;99.90;;;;;;5027438;28;20049;-82
2022/01/06 09:21:07;;;;;;;17.30;2.93;;;1.00;99.90;;;;;;5030881;28;20061;-82
2022/01/06 09:23:33;;;;;;;28.23;4.40;;;1.00;99.90;;;;;;5030257;28;20128;-81
2022/01/06 09:25:59;;;;;;;16.43;3.30;;;1.00;99.90;;;;;;5013868;28;20136;-81
2022/01/06 09:28:25;;;;;;;13.57;3.47;;;0.90;99.90;;;;;;5013654;28;20193;-78
2022/01/06 09:30:52;;;;;;;17.37;3.00;;;0.90;99.90;;;;;;5030042;28;20037;-81
2022/01/06 09:33:18;;;;;;;20.40;3.07;;;0.90;99.90;;;;;;5013719;28;20037;-81
2022/01/06 09:35:49;;;;;;;15.80;2.73;;;1.00;99.90;;;;;;5013837;28;20034;-81
2022/01/06 09:38:16;;;;;;;18.37;3.77;;;1.10;99.90;;;;;;5030193;28;20076;-81
2022/01/06 09:40:44;;;;;;;26.60;3.93;;;1.30;99.90;;;;;;5030146;28;20044;-78
2022/01/06 09:43:12;;;;;;;23.83;3.33;;;1.40;99.90;;;;;;5029923;28;20037;-82
2022/01/06 09:45:40;;;;;;;17.93;3.63;;;1.50;99.90;;;;;;5029638;28;20037;-81
2022/01/06 09:48:08;;;;;;;35.33;4.10;;;1.70;99.90;;;;;;5046447;28;20083;-78
2022/01/06 09:50:36;;;;;;;21.13;4.63;;;1.80;99.90;;;;;;5046578;28;20128;-81
2022/01/06 09:53:02;;;;;;;23.93;4.73;;;1.90;99.90;;;;;;5029947;28;20476;-78
2022/01/06 09:55:28;;;;;;;24.87;4.83;;;2.00;99.90;;;;;;5030084;28;20038;-81
2022/01/06 09:58:00;;;;;;;23.02;3.33;;;2.10;99.90;;;;;;4997158;28;20060;-78
2022/01/06 10:00:30;;;;;;;20.95;3.78;;;2.20;99.90;;;;;;5031031;28;20057;-77
2022/01/06 10:03:02;;;;;;;23.10;3.67;;;2.20;99.90;;;;;;5030921;28;20052;-81
2022/01/06 10:05:41;;;;;;;19.50;3.05;;;2.30;99.90;;;;;;5014837;28;20133;-82
2022/01/06 10:08:08;;;;;;;24.02;4.13;;;2.60;99.90;;;;;;5030431;28;20429;-81
2022/01/06 10:10:35;;;;;;;25.92;3.25;;;2.50;99.90;;;;;;5031203;28;20064;-78
2022/01/06 10:13:07;;;;;;;15.93;3.38;;;2.70;99.90;;;;;;5014171;28;20057;-78
2022/01/06 10:15:34;;;;;;;22.00;4.18;;;2.80;99.90;;;;;;5030904;28;20057;-77
2022/01/06 10:18:13;;;;;;;18.85;3.33;;;2.80;99.90;;;;;;5046121;28;20046;-77
2022/01/06 10:20:39;;;;;;;19.80;3.33;;;3.00;99.90;;;;;;5013503;28;20060;-78
2022/01/06 10:23:15;;;;;;;16.67;3.67;;;3.00;99.90;;;;;;5029115;28;20065;-77
2022/01/06 10:25:49;;;;;;;18.45;2.78;;;3.10;99.90;;;;;;5046569;28;20554;-81
2022/01/06 10:28:24;;;;;;;22.80;3.80;;;3.20;99.90;;;;;;5037332;28;20050;-77
2022/01/06 10:30:50;;;;;;;21.30;3.45;;;3.30;99.90;;;;;;5013194;28;20493;-81
2022/01/06 10:33:18;;;;;;;14.73;2.92;;;3.40;99.90;;;;;;5029178;28;20056;-81
2022/01/06 10:35:44;;;;;;;20.50;3.33;;;3.50;99.90;;;;;;5010602;28;20042;-77
2022/01/06 10:38:10;;;;;;;14.55;3.08;;;3.60;99.90;;;;;;5013308;28;20100;-81
2022/01/06 10:40:36;;;;;;;23.67;4.03;;;3.60;99.90;;;;;;4996596;28;20042;-77
2022/01/06 10:43:05;;;;;;;14.57;3.60;;;3.70;99.90;;;;;;5029585;28;20076;-78
2022/01/06 10:45:32;;;;;;;17.75;3.33;;;3.80;99.90;;;;;;5029186;28;20554;-77
2022/01/06 10:48:01;;;;;;;15.65;3.08;;;3.80;99.90;;;;;;4994427;28;20037;-77
2022/01/06 10:50:29;;;;;;;12.90;2.25;;;3.80;99.90;;;;;;5036454;28;20050;-77
2022/01/06 10:53:08;;;;;;;29.60;5.78;;;3.90;95.40;;;;;;5049979;28;20041;-81
2022/01/06 10:55:39;;;;;;;20.38;4.00;;;4.00;87.90;;;;;;5033572;28;20095;-78
2022/01/06 10:58:08;;;;;;;25.85;3.08;;;4.10;90.50;;;;;;5033375;28;20096;-81
2022/01/06 11:00:39;;;;;;;22.98;2.70;;;4.10;79.30;;;;;;5033059;28;20041;-81
2022/01/06 11:03:11;;;;;;;24.83;3.65;;;4.20;91.00;;;;;;5030434;28;20037;-77
2022/01/06 11:05:51;;;;;;;16.42;3.00;;;4.30;99.90;;;;;;5015369;28;20049;-77
2022/01/06 11:08:21;;;;;;;17.27;3.10;;;4.30;93.60;;;;;;5016500;28;20555;-77
2022/01/06 11:11:01;;;;;;;15.15;3.00;;;4.30;89.60;;;;;;5033152;28;20053;-81
2022/01/06 11:13:30;;;;;;;17.30;3.28;;;4.30;90.20;;;;;;5032994;28;20073;-81
2022/01/06 11:15:57;;;;;;;21.80;3.35;;;4.40;72.50;;;;;;5032350;28;20046;-81
2022/01/06 11:18:23;;;;;;;13.90;2.13;;;4.40;83.30;;;;;;5015808;28;20087;-77
2022/01/06 11:20:49;;;;;;;18.88;2.25;;;4.50;76.30;;;;;;5017399;28;20434;-81
2022/01/06 11:23:23;;;;;;;19.17;2.88;;;4.50;43.90;;;;;;5034434;28;20037;-81
2022/01/06 11:26:02;;;;;;;;;;;4.70;55.30;;;;;;5034700;28;20049;-81
2022/01/06 11:28:30;;;;;;;13.40;2.30;;;4.60;39.10;;;;;;5051127;28;19921;-81
2022/01/06 11:30:56;;;;;;;18.13;3.30;;;4.70;35.30;;;;;;5050958;28;20041;-78
2022/01/06 11:33:22;;;;;;;14.85;3.10;;;4.80;33.00;;;;;;5034283;28;20053;-81
2022/01/06 11:35:56;;;;;;;17.00;2.15;;;4.80;31.40;;;;;;5034072;28;20614;-81
2022/01/06 11:38:26;;;;;;;12.73;2.85;;;5.00;33.80;;;;;;5034601;28;20350;-77
2022/01/06 11:41:09;;;;;;;13.25;3.13;;;5.00;20.60;;;;;;5050676;28;20095;-81
2022/01/06 11:43:40;;;;;;;17.35;2.60;;;5.00;20.40;;;;;;5051205;28;20094;-81
2022/01/06 11:46:07;;;;;;;14.98;2.13;;;5.10;26.20;;;;;;5034036;28;20389;-78
2022/01/06 11:48:43;;;;;;;20.50;3.75;;;5.20;28.10;;;;;;5034132;28;20464;-77
2022/01/06 11:51:20;;;;;;;12.27;2.35;;;5.20;36.90;;;;;;5033991;28;20041;-81
2022/01/06 11:53:46;;;;;;;12.93;2.45;;;5.30;22.20;;;;;;5034038;28;20068;-81
2022/01/06 11:56:14;;;;;;;15.63;2.13;;;5.30;1.00;;;;;;5033860;28;20041;-79
2022/01/06 11:58:40;;;;;;;15.85;2.08;;;5.50;5.30;;;;;;5050616;28;20400;-81
2022/01/06 12:01:12;;;;;;;12.88;2.80;;;5.50;5.80;;;;;;5017025;28;20065;-77
2022/01/06 12:03:39;;;;;;;12.60;3.47;;;5.50;22.00;;;;;;5033733;28;20080;-77
2022/01/06 12:06:06;;;;;;;19.52;3.22;;;5.60;1.00;;;;;;5050576;28;20400;-81
2022/01/06 12:08:42;;;;;;;14.43;2.72;;;5.60;3.00;;;;;;5033511;28;20053;-77
2022/01/06 12:11:26;;;;;;;13.20;1.55;;;5.70;8.90;;;;;;5050367;28;20480;-81
2022/01/06 12:13:54;;;;;;;17.50;2.25;;;5.70;1.00;;;;;;5049913;28;20045;-77
2022/01/06 12:16:47;;;;;;;7.70;1.00;;;5.80;1.00;;;;;;5033599;28;20049;-81
2022/01/06 12:19:17;;;;;;;16.02;2.95;;;5.90;1.00;;;;;;5032298;28;20049;-81
2022/01/06 12:21:43;;;;;;;8.75;1.30;;;5.90;1.00;;;;;;5050243;28;20071;-77
2022/01/06 12:24:11;;;;;;;14.93;2.28;;;5.80;1.00;;;;;;5033539;28;20089;-77
2022/01/06 12:26:39;;;;;;;9.77;1.52;;;5.80;1.00;;;;;;5033539;28;20124;-81
2022/01/06 12:29:14;;;;;;;6.68;0.90;;;5.80;1.00;;;;;;5049637;28;20054;-78
2022/01/06 12:31:41;;;;;;;11.50;1.55;;;5.80;1.00;;;;;;5033350;28;20045;-81
2022/01/06 12:34:08;;;;;;;10.30;1.98;;;5.80;1.00;;;;;;5033104;28;20052;-78
2022/01/06 12:36:37;;;;;;;13.73;1.52;;;6.00;1.00;;;;;;5049773;28;20049;-78
2022/01/06 12:39:20;;;;;;;13.50;2.58;;;6.20;1.00;;;;;;5050007;28;20053;-81
2022/01/06 12:41:48;;;;;;;11.68;2.65;;;6.70;1.00;;;;;;5049920;28;20042;-80
2022/01/06 12:44:27;;;;;;;13.57;1.45;;;7.30;1.00;;;;;;5033104;28;20218;-80
2022/01/06 12:46:53;;;;;;;10.63;1.90;;;7.50;1.00;;;;;;5032983;28;20067;-81
2022/01/06 12:49:23;;;;;;;14.82;2.80;;;7.60;1.00;;;;;;5049727;28;20447;-81
2022/01/06 12:51:50;;;;;;;12.18;1.95;;;7.70;1.00;;;;;;5049467;28;20100;-78
2022/01/06 12:54:21;;;;;;;14.48;2.40;;;7.80;1.00;;;;;;5032789;28;20045;-81